Jackson, Idaho
Current Conditions -  °F | °C
As of 1:53 AM on Saturday 25 Oct 2014 (Local Time) from KBYI Reporting Station
Clear Clear  
Wind Chill: 41°   Ceiling: Unl
Heat Index: 41°   Visibility: 10mi
Dew Point: 33°   Wind: 3mph
Humidity: 73%   Direction: 40°NE
Pressure: 29.99"   Gusts: NA
Location:  42.6416°N, 113.637°W
Report Text: KBYI 250753Z AUTO 04003KT 10SM CLR 05/01 A2999 RMK AO2 SLP132 T00500006
Loading
Personal Weather Stations






























Interactive Weather Map
Tropical Storm Tracking
New forecast layout! Learn more

10-Day Weather Forecast

Advertisements
Track Severe Weather on mobile